sensor_id;sensor_type;location;lat;lon;timestamp;P1;durP1;ratioP1;P2;durP2;ratioP2
21181;SDS011;10749;46.296;7.524;2023-07-31T00:00:12;3.78;;;1.65;;
21181;SDS011;10749;46.296;7.524;2023-07-31T00:02:38;4.18;;;1.80;;
21181;SDS011;10749;46.296;7.524;2023-07-31T00:05:03;6.05;;;1.80;;
21181;SDS011;10749;46.296;7.524;2023-07-31T00:07:29;2.95;;;1.83;;
21181;SDS011;10749;46.296;7.524;2023-07-31T00:09:54;3.75;;;2.00;;
21181;SDS011;10749;46.296;7.524;2023-07-31T00:12:21;5.22;;;1.85;;
21181;SDS011;10749;46.296;7.524;2023-07-31T00:14:47;4.07;;;1.90;;
21181;SDS011;10749;46.296;7.524;2023-07-31T00:17:12;3.05;;;1.52;;
21181;SDS011;10749;46.296;7.524;2023-07-31T00:19:38;3.00;;;1.80;;
21181;SDS011;10749;46.296;7.524;2023-07-31T00:22:03;2.63;;;1.98;;
21181;SDS011;10749;46.296;7.524;2023-07-31T00:24:29;5.80;;;1.95;;
21181;SDS011;10749;46.296;7.524;2023-07-31T00:26:54;4.13;;;2.00;;
21181;SDS011;10749;46.296;7.524;2023-07-31T00:29:19;2.58;;;2.00;;
21181;SDS011;10749;46.296;7.524;2023-07-31T00:31:45;3.03;;;2.00;;
21181;SDS011;10749;46.296;7.524;2023-07-31T00:34:10;2.85;;;1.98;;
21181;SDS011;10749;46.296;7.524;2023-07-31T00:36:35;3.47;;;2.03;;
21181;SDS011;10749;46.296;7.524;2023-07-31T00:39:01;4.22;;;1.95;;
21181;SDS011;10749;46.296;7.524;2023-07-31T00:41:26;4.93;;;2.30;;
21181;SDS011;10749;46.296;7.524;2023-07-31T00:43:51;3.90;;;1.95;;
21181;SDS011;10749;46.296;7.524;2023-07-31T00:46:17;3.65;;;1.80;;
21181;SDS011;10749;46.296;7.524;2023-07-31T00:48:42;3.80;;;1.90;;
21181;SDS011;10749;46.296;7.524;2023-07-31T00:51:08;3.17;;;1.90;;
21181;SDS011;10749;46.296;7.524;2023-07-31T00:53:33;5.63;;;2.35;;
21181;SDS011;10749;46.296;7.524;2023-07-31T00:55:59;3.38;;;2.35;;
21181;SDS011;10749;46.296;7.524;2023-07-31T00:58:24;2.45;;;1.58;;
21181;SDS011;10749;46.296;7.524;2023-07-31T01:00:49;3.40;;;1.75;;
21181;SDS011;10749;46.296;7.524;2023-07-31T01:03:15;4.43;;;2.30;;
21181;SDS011;10749;46.296;7.524;2023-07-31T01:08:37;3.20;;;2.10;;
21181;SDS011;10749;46.296;7.524;2023-07-31T01:11:14;5.00;;;1.90;;
21181;SDS011;10749;46.296;7.524;2023-07-31T01:13:42;3.20;;;1.88;;
21181;SDS011;10749;46.296;7.524;2023-07-31T01:16:09;4.75;;;1.88;;
21181;SDS011;10749;46.296;7.524;2023-07-31T01:18:35;5.20;;;1.98;;
21181;SDS011;10749;46.296;7.524;2023-07-31T01:21:06;1.90;;;1.48;;
21181;SDS011;10749;46.296;7.524;2023-07-31T01:26:24;2.60;;;1.88;;
21181;SDS011;10749;46.296;7.524;2023-07-31T01:31:26;4.32;;;2.10;;
21181;SDS011;10749;46.296;7.524;2023-07-31T01:33:54;4.05;;;1.90;;
21181;SDS011;10749;46.296;7.524;2023-07-31T01:36:24;3.00;;;2.13;;
21181;SDS011;10749;46.296;7.524;2023-07-31T01:38:50;3.65;;;2.25;;
21181;SDS011;10749;46.296;7.524;2023-07-31T01:41:18;4.65;;;2.00;;
21181;SDS011;10749;46.296;7.524;2023-07-31T01:43:44;2.70;;;1.85;;
21181;SDS011;10749;46.296;7.524;2023-07-31T01:46:10;3.50;;;2.15;;
21181;SDS011;10749;46.296;7.524;2023-07-31T01:48:36;2.55;;;1.92;;
21181;SDS011;10749;46.296;7.524;2023-07-31T01:51:02;3.63;;;2.28;;
21181;SDS011;10749;46.296;7.524;2023-07-31T01:53:28;5.28;;;2.15;;
21181;SDS011;10749;46.296;7.524;2023-07-31T01:55:54;6.47;;;2.33;;
21181;SDS011;10749;46.296;7.524;2023-07-31T01:58:19;4.53;;;2.15;;
21181;SDS011;10749;46.296;7.524;2023-07-31T02:00:44;4.70;;;2.15;;
21181;SDS011;10749;46.296;7.524;2023-07-31T02:03:11;5.43;;;2.50;;
21181;SDS011;10749;46.296;7.524;2023-07-31T02:05:36;5.45;;;2.30;;
21181;SDS011;10749;46.296;7.524;2023-07-31T02:08:02;6.47;;;2.30;;
21181;SDS011;10749;46.296;7.524;2023-07-31T02:10:27;4.60;;;2.00;;
21181;SDS011;10749;46.296;7.524;2023-07-31T02:12:52;5.63;;;2.38;;
21181;SDS011;10749;46.296;7.524;2023-07-31T02:15:18;5.57;;;2.17;;
21181;SDS011;10749;46.296;7.524;2023-07-31T02:17:43;7.28;;;2.15;;
21181;SDS011;10749;46.296;7.524;2023-07-31T02:20:09;4.65;;;2.40;;
21181;SDS011;10749;46.296;7.524;2023-07-31T02:22:34;3.47;;;1.88;;
21181;SDS011;10749;46.296;7.524;2023-07-31T02:25:00;3.88;;;2.15;;
21181;SDS011;10749;46.296;7.524;2023-07-31T02:27:25;4.75;;;2.40;;
21181;SDS011;10749;46.296;7.524;2023-07-31T02:29:52;2.70;;;2.00;;
21181;SDS011;10749;46.296;7.524;2023-07-31T02:32:17;5.05;;;2.13;;
21181;SDS011;10749;46.296;7.524;2023-07-31T02:34:43;3.50;;;2.20;;
21181;SDS011;10749;46.296;7.524;2023-07-31T02:37:08;4.88;;;2.15;;
21181;SDS011;10749;46.296;7.524;2023-07-31T02:39:33;5.03;;;2.22;;
21181;SDS011;10749;46.296;7.524;2023-07-31T02:41:59;3.28;;;2.15;;
21181;SDS011;10749;46.296;7.524;2023-07-31T02:44:25;3.85;;;2.17;;
21181;SDS011;10749;46.296;7.524;2023-07-31T02:46:51;3.20;;;2.00;;
21181;SDS011;10749;46.296;7.524;2023-07-31T02:49:16;4.57;;;2.33;;
21181;SDS011;10749;46.296;7.524;2023-07-31T02:51:41;3.38;;;2.40;;
21181;SDS011;10749;46.296;7.524;2023-07-31T02:54:06;4.50;;;2.10;;
21181;SDS011;10749;46.296;7.524;2023-07-31T02:56:32;4.95;;;2.20;;
21181;SDS011;10749;46.296;7.524;2023-07-31T02:58:57;5.53;;;2.30;;
21181;SDS011;10749;46.296;7.524;2023-07-31T03:01:23;3.05;;;1.77;;
21181;SDS011;10749;46.296;7.524;2023-07-31T03:03:48;3.53;;;2.20;;
21181;SDS011;10749;46.296;7.524;2023-07-31T03:06:13;5.15;;;2.35;;
21181;SDS011;10749;46.296;7.524;2023-07-31T03:08:38;3.72;;;1.90;;
21181;SDS011;10749;46.296;7.524;2023-07-31T03:11:04;2.58;;;1.98;;
21181;SDS011;10749;46.296;7.524;2023-07-31T03:13:29;5.53;;;2.15;;
21181;SDS011;10749;46.296;7.524;2023-07-31T03:15:54;5.93;;;2.75;;
21181;SDS011;10749;46.296;7.524;2023-07-31T03:18:20;5.35;;;2.22;;
21181;SDS011;10749;46.296;7.524;2023-07-31T03:20:45;5.65;;;2.05;;
21181;SDS011;10749;46.296;7.524;2023-07-31T03:23:10;3.80;;;1.92;;
21181;SDS011;10749;46.296;7.524;2023-07-31T03:25:36;4.45;;;2.30;;
21181;SDS011;10749;46.296;7.524;2023-07-31T03:28:01;7.30;;;2.50;;
21181;SDS011;10749;46.296;7.524;2023-07-31T03:30:26;5.05;;;2.25;;
21181;SDS011;10749;46.296;7.524;2023-07-31T03:32:52;3.90;;;2.10;;
21181;SDS011;10749;46.296;7.524;2023-07-31T03:35:17;5.07;;;2.00;;
21181;SDS011;10749;46.296;7.524;2023-07-31T03:37:42;2.95;;;1.70;;
21181;SDS011;10749;46.296;7.524;2023-07-31T03:40:08;3.38;;;2.20;;
21181;SDS011;10749;46.296;7.524;2023-07-31T03:42:34;3.25;;;2.17;;
21181;SDS011;10749;46.296;7.524;2023-07-31T03:44:59;6.70;;;2.50;;
21181;SDS011;10749;46.296;7.524;2023-07-31T03:47:24;3.03;;;1.98;;
21181;SDS011;10749;46.296;7.524;2023-07-31T03:49:50;4.85;;;2.30;;
21181;SDS011;10749;46.296;7.524;2023-07-31T03:52:15;3.60;;;2.20;;
21181;SDS011;10749;46.296;7.524;2023-07-31T03:54:40;4.13;;;1.70;;
21181;SDS011;10749;46.296;7.524;2023-07-31T03:57:06;3.75;;;2.17;;
21181;SDS011;10749;46.296;7.524;2023-07-31T03:59:31;2.25;;;1.92;;
21181;SDS011;10749;46.296;7.524;2023-07-31T04:01:57;4.53;;;2.03;;
21181;SDS011;10749;46.296;7.524;2023-07-31T04:04:22;3.85;;;2.28;;
21181;SDS011;10749;46.296;7.524;2023-07-31T04:06:47;3.83;;;2.08;;
21181;SDS011;10749;46.296;7.524;2023-07-31T04:09:12;3.33;;;2.28;;
21181;SDS011;10749;46.296;7.524;2023-07-31T04:11:38;4.28;;;2.30;;
21181;SDS011;10749;46.296;7.524;2023-07-31T04:14:04;6.40;;;2.13;;
21181;SDS011;10749;46.296;7.524;2023-07-31T04:16:29;3.50;;;2.22;;
21181;SDS011;10749;46.296;7.524;2023-07-31T04:18:55;4.00;;;1.80;;
21181;SDS011;10749;46.296;7.524;2023-07-31T04:21:20;4.03;;;2.20;;
21181;SDS011;10749;46.296;7.524;2023-07-31T04:23:45;4.25;;;1.92;;
21181;SDS011;10749;46.296;7.524;2023-07-31T04:26:11;3.10;;;2.08;;
21181;SDS011;10749;46.296;7.524;2023-07-31T04:28:36;3.25;;;2.00;;
21181;SDS011;10749;46.296;7.524;2023-07-31T04:31:01;2.50;;;2.00;;
21181;SDS011;10749;46.296;7.524;2023-07-31T04:33:27;3.05;;;2.20;;
21181;SDS011;10749;46.296;7.524;2023-07-31T04:35:52;5.78;;;2.42;;
21181;SDS011;10749;46.296;7.524;2023-07-31T04:38:19;4.00;;;2.15;;
21181;SDS011;10749;46.296;7.524;2023-07-31T04:40:44;3.30;;;2.50;;
21181;SDS011;10749;46.296;7.524;2023-07-31T04:43:10;3.50;;;2.30;;
21181;SDS011;10749;46.296;7.524;2023-07-31T04:45:35;3.47;;;2.10;;
21181;SDS011;10749;46.296;7.524;2023-07-31T04:48:00;3.55;;;2.08;;
21181;SDS011;10749;46.296;7.524;2023-07-31T04:50:26;3.58;;;2.25;;
21181;SDS011;10749;46.296;7.524;2023-07-31T04:52:51;3.85;;;2.13;;
21181;SDS011;10749;46.296;7.524;2023-07-31T04:55:16;5.43;;;2.35;;
21181;SDS011;10749;46.296;7.524;2023-07-31T04:57:42;3.92;;;2.28;;
21181;SDS011;10749;46.296;7.524;2023-07-31T05:00:07;3.63;;;2.20;;
21181;SDS011;10749;46.296;7.524;2023-07-31T05:02:33;4.78;;;2.40;;
21181;SDS011;10749;46.296;7.524;2023-07-31T05:04:58;4.95;;;2.45;;
21181;SDS011;10749;46.296;7.524;2023-07-31T05:07:23;6.30;;;2.55;;
21181;SDS011;10749;46.296;7.524;2023-07-31T05:09:49;3.97;;;2.47;;
21181;SDS011;10749;46.296;7.524;2023-07-31T05:12:14;6.53;;;2.20;;
21181;SDS011;10749;46.296;7.524;2023-07-31T05:14:39;4.55;;;2.30;;
21181;SDS011;10749;46.296;7.524;2023-07-31T05:17:05;5.15;;;2.75;;
21181;SDS011;10749;46.296;7.524;2023-07-31T05:19:30;4.07;;;2.50;;
21181;SDS011;10749;46.296;7.524;2023-07-31T05:21:56;3.42;;;2.30;;
21181;SDS011;10749;46.296;7.524;2023-07-31T05:24:21;4.70;;;2.10;;
21181;SDS011;10749;46.296;7.524;2023-07-31T05:26:46;3.58;;;1.92;;
21181;SDS011;10749;46.296;7.524;2023-07-31T05:29:12;2.30;;;2.10;;
21181;SDS011;10749;46.296;7.524;2023-07-31T05:31:38;4.93;;;2.08;;
21181;SDS011;10749;46.296;7.524;2023-07-31T05:34:03;5.00;;;2.75;;
21181;SDS011;10749;46.296;7.524;2023-07-31T05:36:29;3.88;;;2.38;;
21181;SDS011;10749;46.296;7.524;2023-07-31T05:38:54;3.45;;;2.47;;
21181;SDS011;10749;46.296;7.524;2023-07-31T05:41:19;5.47;;;2.50;;
21181;SDS011;10749;46.296;7.524;2023-07-31T05:43:44;4.05;;;2.05;;
21181;SDS011;10749;46.296;7.524;2023-07-31T05:46:10;3.78;;;2.60;;
21181;SDS011;10749;46.296;7.524;2023-07-31T05:48:36;3.40;;;2.55;;
21181;SDS011;10749;46.296;7.524;2023-07-31T05:51:02;3.28;;;2.22;;
21181;SDS011;10749;46.296;7.524;2023-07-31T05:53:27;3.55;;;2.40;;
21181;SDS011;10749;46.296;7.524;2023-07-31T05:55:53;4.30;;;2.28;;
21181;SDS011;10749;46.296;7.524;2023-07-31T05:58:18;3.03;;;2.30;;
21181;SDS011;10749;46.296;7.524;2023-07-31T06:00:44;5.82;;;2.58;;
21181;SDS011;10749;46.296;7.524;2023-07-31T06:03:09;2.95;;;2.40;;
21181;SDS011;10749;46.296;7.524;2023-07-31T06:05:34;5.90;;;2.30;;
21181;SDS011;10749;46.296;7.524;2023-07-31T06:08:00;5.68;;;2.80;;
21181;SDS011;10749;46.296;7.524;2023-07-31T06:10:25;6.65;;;2.78;;
21181;SDS011;10749;46.296;7.524;2023-07-31T06:12:51;4.93;;;2.47;;
21181;SDS011;10749;46.296;7.524;2023-07-31T06:15:16;6.13;;;2.80;;
21181;SDS011;10749;46.296;7.524;2023-07-31T06:17:44;3.05;;;2.30;;
21181;SDS011;10749;46.296;7.524;2023-07-31T06:20:09;3.38;;;2.80;;
21181;SDS011;10749;46.296;7.524;2023-07-31T06:22:35;4.40;;;2.83;;
21181;SDS011;10749;46.296;7.524;2023-07-31T06:25:00;4.35;;;2.88;;
21181;SDS011;10749;46.296;7.524;2023-07-31T06:27:25;5.07;;;2.80;;
21181;SDS011;10749;46.296;7.524;2023-07-31T06:29:51;3.95;;;2.63;;
21181;SDS011;10749;46.296;7.524;2023-07-31T06:32:16;4.25;;;2.25;;
21181;SDS011;10749;46.296;7.524;2023-07-31T06:34:41;5.25;;;2.38;;
21181;SDS011;10749;46.296;7.524;2023-07-31T06:37:07;4.00;;;2.35;;
21181;SDS011;10749;46.296;7.524;2023-07-31T06:39:32;4.00;;;2.13;;
21181;SDS011;10749;46.296;7.524;2023-07-31T06:41:57;4.95;;;2.80;;
21181;SDS011;10749;46.296;7.524;2023-07-31T06:44:23;4.60;;;2.58;;
21181;SDS011;10749;46.296;7.524;2023-07-31T06:46:48;6.68;;;2.90;;
21181;SDS011;10749;46.296;7.524;2023-07-31T06:49:13;3.72;;;2.80;;
21181;SDS011;10749;46.296;7.524;2023-07-31T06:51:40;3.65;;;2.65;;
21181;SDS011;10749;46.296;7.524;2023-07-31T06:54:05;2.97;;;2.53;;
21181;SDS011;10749;46.296;7.524;2023-07-31T06:56:31;6.78;;;2.97;;
21181;SDS011;10749;46.296;7.524;2023-07-31T06:58:56;4.53;;;2.83;;
21181;SDS011;10749;46.296;7.524;2023-07-31T07:01:21;6.15;;;2.65;;
21181;SDS011;10749;46.296;7.524;2023-07-31T07:03:47;3.40;;;2.63;;
21181;SDS011;10749;46.296;7.524;2023-07-31T07:06:12;3.58;;;2.70;;
21181;SDS011;10749;46.296;7.524;2023-07-31T07:08:37;3.58;;;2.67;;
21181;SDS011;10749;46.296;7.524;2023-07-31T07:11:03;5.75;;;2.70;;
21181;SDS011;10749;46.296;7.524;2023-07-31T07:13:28;5.13;;;2.63;;
21181;SDS011;10749;46.296;7.524;2023-07-31T07:15:54;3.35;;;2.60;;
21181;SDS011;10749;46.296;7.524;2023-07-31T07:18:19;4.22;;;2.70;;
21181;SDS011;10749;46.296;7.524;2023-07-31T07:20:50;5.15;;;2.65;;
21181;SDS011;10749;46.296;7.524;2023-07-31T07:23:16;4.85;;;2.25;;
21181;SDS011;10749;46.296;7.524;2023-07-31T07:25:41;3.25;;;2.60;;
21181;SDS011;10749;46.296;7.524;2023-07-31T07:28:08;3.63;;;2.67;;
21181;SDS011;10749;46.296;7.524;2023-07-31T07:30:33;4.70;;;2.60;;
21181;SDS011;10749;46.296;7.524;2023-07-31T07:32:58;3.35;;;2.53;;
21181;SDS011;10749;46.296;7.524;2023-07-31T07:35:24;4.10;;;2.88;;
21181;SDS011;10749;46.296;7.524;2023-07-31T07:37:49;3.80;;;2.50;;
21181;SDS011;10749;46.296;7.524;2023-07-31T07:40:18;5.00;;;2.53;;
21181;SDS011;10749;46.296;7.524;2023-07-31T07:42:44;5.22;;;2.40;;
21181;SDS011;10749;46.296;7.524;2023-07-31T07:45:09;4.30;;;2.70;;
21181;SDS011;10749;46.296;7.524;2023-07-31T07:47:34;4.47;;;2.70;;
21181;SDS011;10749;46.296;7.524;2023-07-31T07:50:00;3.75;;;2.20;;
21181;SDS011;10749;46.296;7.524;2023-07-31T07:52:25;3.47;;;2.22;;
21181;SDS011;10749;46.296;7.524;2023-07-31T07:54:50;3.42;;;2.35;;
21181;SDS011;10749;46.296;7.524;2023-07-31T07:57:16;4.28;;;2.83;;
21181;SDS011;10749;46.296;7.524;2023-07-31T07:59:41;3.45;;;2.90;;
21181;SDS011;10749;46.296;7.524;2023-07-31T08:02:07;4.40;;;2.67;;
21181;SDS011;10749;46.296;7.524;2023-07-31T08:04:32;5.07;;;2.65;;
21181;SDS011;10749;46.296;7.524;2023-07-31T08:06:57;4.63;;;2.72;;
21181;SDS011;10749;46.296;7.524;2023-07-31T08:09:23;4.03;;;2.45;;
21181;SDS011;10749;46.296;7.524;2023-07-31T08:11:48;4.25;;;2.40;;
21181;SDS011;10749;46.296;7.524;2023-07-31T08:14:14;4.05;;;2.35;;
21181;SDS011;10749;46.296;7.524;2023-07-31T08:16:39;4.80;;;2.15;;
21181;SDS011;10749;46.296;7.524;2023-07-31T08:19:04;3.60;;;2.05;;
21181;SDS011;10749;46.296;7.524;2023-07-31T08:21:33;3.95;;;2.50;;
21181;SDS011;10749;46.296;7.524;2023-07-31T08:24:01;3.63;;;2.50;;
21181;SDS011;10749;46.296;7.524;2023-07-31T08:26:26;3.40;;;2.72;;
21181;SDS011;10749;46.296;7.524;2023-07-31T08:28:52;2.53;;;2.30;;
21181;SDS011;10749;46.296;7.524;2023-07-31T08:31:17;4.07;;;2.53;;
21181;SDS011;10749;46.296;7.524;2023-07-31T08:33:43;5.43;;;2.45;;
21181;SDS011;10749;46.296;7.524;2023-07-31T08:36:08;3.83;;;2.65;;
21181;SDS011;10749;46.296;7.524;2023-07-31T08:38:34;4.63;;;2.92;;
21181;SDS011;10749;46.296;7.524;2023-07-31T08:40:59;5.32;;;2.67;;
21181;SDS011;10749;46.296;7.524;2023-07-31T08:43:25;3.50;;;2.75;;
21181;SDS011;10749;46.296;7.524;2023-07-31T08:45:51;3.13;;;2.28;;
21181;SDS011;10749;46.296;7.524;2023-07-31T08:48:17;3.47;;;2.67;;
21181;SDS011;10749;46.296;7.524;2023-07-31T08:50:43;3.17;;;2.40;;
21181;SDS011;10749;46.296;7.524;2023-07-31T08:53:08;3.90;;;2.63;;
21181;SDS011;10749;46.296;7.524;2023-07-31T08:55:34;3.95;;;2.80;;
21181;SDS011;10749;46.296;7.524;2023-07-31T08:58:00;6.97;;;3.17;;
21181;SDS011;10749;46.296;7.524;2023-07-31T09:00:28;3.50;;;2.28;;
21181;SDS011;10749;46.296;7.524;2023-07-31T09:02:59;5.18;;;2.63;;
21181;SDS011;10749;46.296;7.524;2023-07-31T09:05:28;3.58;;;2.70;;
21181;SDS011;10749;46.296;7.524;2023-07-31T09:07:56;4.93;;;2.88;;
21181;SDS011;10749;46.296;7.524;2023-07-31T09:10:22;3.50;;;2.75;;
21181;SDS011;10749;46.296;7.524;2023-07-31T09:12:48;4.10;;;2.80;;
21181;SDS011;10749;46.296;7.524;2023-07-31T09:15:16;3.33;;;2.65;;
21181;SDS011;10749;46.296;7.524;2023-07-31T09:17:42;2.75;;;2.25;;
21181;SDS011;10749;46.296;7.524;2023-07-31T09:20:14;2.95;;;2.50;;
21181;SDS011;10749;46.296;7.524;2023-07-31T09:22:40;3.35;;;2.47;;
21181;SDS011;10749;46.296;7.524;2023-07-31T09:27:46;3.88;;;2.15;;
21181;SDS011;10749;46.296;7.524;2023-07-31T09:30:28;3.97;;;2.20;;
21181;SDS011;10749;46.296;7.524;2023-07-31T09:33:00;3.38;;;2.10;;
21181;SDS011;10749;46.296;7.524;2023-07-31T09:35:31;2.60;;;2.00;;
21181;SDS011;10749;46.296;7.524;2023-07-31T09:38:07;2.92;;;2.20;;
21181;SDS011;10749;46.296;7.524;2023-07-31T09:40:36;2.92;;;2.17;;
21181;SDS011;10749;46.296;7.524;2023-07-31T09:43:03;4.45;;;2.30;;
21181;SDS011;10749;46.296;7.524;2023-07-31T09:45:33;2.97;;;1.90;;
21181;SDS011;10749;46.296;7.524;2023-07-31T09:47:59;2.72;;;1.80;;
21181;SDS011;10749;46.296;7.524;2023-07-31T09:50:25;2.65;;;2.15;;
21181;SDS011;10749;46.296;7.524;2023-07-31T09:52:50;2.28;;;1.90;;
21181;SDS011;10749;46.296;7.524;2023-07-31T09:55:19;3.50;;;1.90;;
21181;SDS011;10749;46.296;7.524;2023-07-31T09:57:45;3.75;;;1.98;;
21181;SDS011;10749;46.296;7.524;2023-07-31T10:00:13;4.07;;;2.20;;
21181;SDS011;10749;46.296;7.524;2023-07-31T10:02:40;3.45;;;2.33;;
21181;SDS011;10749;46.296;7.524;2023-07-31T10:05:06;4.10;;;2.22;;
21181;SDS011;10749;46.296;7.524;2023-07-31T10:07:34;3.30;;;2.40;;
21181;SDS011;10749;46.296;7.524;2023-07-31T10:10:03;2.53;;;2.10;;
21181;SDS011;10749;46.296;7.524;2023-07-31T10:12:29;2.85;;;1.95;;
21181;SDS011;10749;46.296;7.524;2023-07-31T10:14:57;2.58;;;2.08;;
21181;SDS011;10749;46.296;7.524;2023-07-31T10:17:24;3.05;;;2.45;;
21181;SDS011;10749;46.296;7.524;2023-07-31T10:19:51;3.67;;;2.42;;
21181;SDS011;10749;46.296;7.524;2023-07-31T10:22:18;4.15;;;2.50;;
21181;SDS011;10749;46.296;7.524;2023-07-31T10:24:45;5.35;;;2.75;;
21181;SDS011;10749;46.296;7.524;2023-07-31T10:27:11;3.50;;;2.45;;
21181;SDS011;10749;46.296;7.524;2023-07-31T10:29:37;5.15;;;2.30;;
21181;SDS011;10749;46.296;7.524;2023-07-31T10:32:04;4.25;;;2.60;;
21181;SDS011;10749;46.296;7.524;2023-07-31T10:34:33;3.00;;;2.28;;
21181;SDS011;10749;46.296;7.524;2023-07-31T10:37:19;3.65;;;2.38;;
21181;SDS011;10749;46.296;7.524;2023-07-31T10:45:02;4.60;;;2.20;;
21181;SDS011;10749;46.296;7.524;2023-07-31T10:47:36;3.08;;;2.10;;
21181;SDS011;10749;46.296;7.524;2023-07-31T10:52:55;2.30;;;2.05;;
21181;SDS011;10749;46.296;7.524;2023-07-31T10:55:41;4.35;;;2.15;;
21181;SDS011;10749;46.296;7.524;2023-07-31T10:58:12;3.08;;;2.53;;
21181;SDS011;10749;46.296;7.524;2023-07-31T11:00:39;3.70;;;2.28;;
21181;SDS011;10749;46.296;7.524;2023-07-31T11:03:09;3.80;;;2.17;;
21181;SDS011;10749;46.296;7.524;2023-07-31T11:08:16;3.35;;;2.15;;
21181;SDS011;10749;46.296;7.524;2023-07-31T11:10:42;4.13;;;2.40;;
21181;SDS011;10749;46.296;7.524;2023-07-31T11:13:09;4.10;;;2.38;;
21181;SDS011;10749;46.296;7.524;2023-07-31T11:15:34;3.50;;;2.40;;
21181;SDS011;10749;46.296;7.524;2023-07-31T11:18:00;3.88;;;2.40;;
21181;SDS011;10749;46.296;7.524;2023-07-31T11:20:31;3.97;;;2.10;;
21181;SDS011;10749;46.296;7.524;2023-07-31T11:23:01;2.70;;;1.90;;
21181;SDS011;10749;46.296;7.524;2023-07-31T11:25:30;2.47;;;2.00;;
21181;SDS011;10749;46.296;7.524;2023-07-31T11:27:57;3.00;;;2.20;;
21181;SDS011;10749;46.296;7.524;2023-07-31T11:30:27;3.22;;;1.80;;
21181;SDS011;10749;46.296;7.524;2023-07-31T11:32:53;4.60;;;2.13;;
21181;SDS011;10749;46.296;7.524;2023-07-31T11:35:20;3.80;;;2.40;;
21181;SDS011;10749;46.296;7.524;2023-07-31T11:37:45;5.90;;;1.98;;
21181;SDS011;10749;46.296;7.524;2023-07-31T11:40:11;3.30;;;2.10;;
21181;SDS011;10749;46.296;7.524;2023-07-31T11:42:37;3.50;;;2.10;;
21181;SDS011;10749;46.296;7.524;2023-07-31T11:45:05;3.30;;;2.08;;
21181;SDS011;10749;46.296;7.524;2023-07-31T11:47:33;4.07;;;2.05;;
21181;SDS011;10749;46.296;7.524;2023-07-31T11:50:04;3.58;;;1.95;;
21181;SDS011;10749;46.296;7.524;2023-07-31T11:52:32;3.92;;;2.28;;
21181;SDS011;10749;46.296;7.524;2023-07-31T11:55:01;2.10;;;1.90;;
21181;SDS011;10749;46.296;7.524;2023-07-31T11:57:27;2.33;;;1.83;;
21181;SDS011;10749;46.296;7.524;2023-07-31T11:59:53;3.25;;;2.28;;
21181;SDS011;10749;46.296;7.524;2023-07-31T12:02:20;3.10;;;1.75;;
21181;SDS011;10749;46.296;7.524;2023-07-31T12:04:46;3.15;;;2.05;;
21181;SDS011;10749;46.296;7.524;2023-07-31T12:07:12;3.67;;;2.53;;
21181;SDS011;10749;46.296;7.524;2023-07-31T12:09:38;4.15;;;2.30;;
21181;SDS011;10749;46.296;7.524;2023-07-31T12:12:03;3.92;;;2.22;;
21181;SDS011;10749;46.296;7.524;2023-07-31T12:14:33;4.10;;;2.10;;
21181;SDS011;10749;46.296;7.524;2023-07-31T12:16:59;3.08;;;1.92;;
21181;SDS011;10749;46.296;7.524;2023-07-31T12:19:26;2.70;;;1.90;;
21181;SDS011;10749;46.296;7.524;2023-07-31T12:22:02;4.00;;;2.05;;
21181;SDS011;10749;46.296;7.524;2023-07-31T12:24:39;2.50;;;2.20;;
21181;SDS011;10749;46.296;7.524;2023-07-31T12:27:13;2.35;;;2.15;;
21181;SDS011;10749;46.296;7.524;2023-07-31T12:29:40;4.03;;;2.13;;
21181;SDS011;10749;46.296;7.524;2023-07-31T12:32:23;3.83;;;2.28;;
21181;SDS011;10749;46.296;7.524;2023-07-31T12:34:50;4.10;;;2.10;;
21181;SDS011;10749;46.296;7.524;2023-07-31T12:37:16;3.08;;;1.92;;
21181;SDS011;10749;46.296;7.524;2023-07-31T12:39:42;3.00;;;2.15;;
21181;SDS011;10749;46.296;7.524;2023-07-31T12:42:07;5.40;;;2.17;;
21181;SDS011;10749;46.296;7.524;2023-07-31T12:44:32;2.72;;;2.08;;
21181;SDS011;10749;46.296;7.524;2023-07-31T12:46:58;3.28;;;2.15;;
21181;SDS011;10749;46.296;7.524;2023-07-31T12:49:23;2.67;;;2.15;;
21181;SDS011;10749;46.296;7.524;2023-07-31T12:51:49;2.22;;;1.92;;
21181;SDS011;10749;46.296;7.524;2023-07-31T12:54:14;3.28;;;2.25;;
21181;SDS011;10749;46.296;7.524;2023-07-31T12:56:39;4.85;;;2.42;;
21181;SDS011;10749;46.296;7.524;2023-07-31T12:59:05;3.80;;;2.00;;
21181;SDS011;10749;46.296;7.524;2023-07-31T13:01:31;3.08;;;2.10;;
21181;SDS011;10749;46.296;7.524;2023-07-31T13:03:56;2.78;;;2.10;;
21181;SDS011;10749;46.296;7.524;2023-07-31T13:06:22;2.67;;;2.15;;
21181;SDS011;10749;46.296;7.524;2023-07-31T13:08:47;2.95;;;2.10;;
21181;SDS011;10749;46.296;7.524;2023-07-31T13:11:13;3.03;;;2.08;;
21181;SDS011;10749;46.296;7.524;2023-07-31T13:13:38;4.63;;;2.22;;
21181;SDS011;10749;46.296;7.524;2023-07-31T13:16:03;3.78;;;2.08;;
21181;SDS011;10749;46.296;7.524;2023-07-31T13:18:29;4.47;;;2.20;;
21181;SDS011;10749;46.296;7.524;2023-07-31T13:20:54;4.65;;;2.28;;
21181;SDS011;10749;46.296;7.524;2023-07-31T13:23:19;3.03;;;2.10;;
21181;SDS011;10749;46.296;7.524;2023-07-31T13:25:45;2.88;;;2.00;;
21181;SDS011;10749;46.296;7.524;2023-07-31T13:28:10;4.18;;;2.35;;
21181;SDS011;10749;46.296;7.524;2023-07-31T13:30:35;4.50;;;2.20;;
21181;SDS011;10749;46.296;7.524;2023-07-31T13:33:01;3.70;;;2.17;;
21181;SDS011;10749;46.296;7.524;2023-07-31T13:35:27;3.40;;;2.17;;
21181;SDS011;10749;46.296;7.524;2023-07-31T13:37:52;2.30;;;2.00;;
21181;SDS011;10749;46.296;7.524;2023-07-31T13:40:18;3.85;;;1.90;;
21181;SDS011;10749;46.296;7.524;2023-07-31T13:42:43;4.30;;;2.13;;
21181;SDS011;10749;46.296;7.524;2023-07-31T13:45:08;2.72;;;1.95;;
21181;SDS011;10749;46.296;7.524;2023-07-31T13:47:34;5.60;;;2.20;;
21181;SDS011;10749;46.296;7.524;2023-07-31T13:49:59;2.85;;;2.03;;
21181;SDS011;10749;46.296;7.524;2023-07-31T13:52:24;2.22;;;1.90;;
21181;SDS011;10749;46.296;7.524;2023-07-31T13:54:50;3.15;;;1.80;;
21181;SDS011;10749;46.296;7.524;2023-07-31T13:57:16;4.15;;;2.30;;
21181;SDS011;10749;46.296;7.524;2023-07-31T13:59:42;3.00;;;1.95;;
21181;SDS011;10749;46.296;7.524;2023-07-31T14:02:07;2.47;;;1.70;;
21181;SDS011;10749;46.296;7.524;2023-07-31T14:04:32;4.45;;;1.98;;
21181;SDS011;10749;46.296;7.524;2023-07-31T14:06:58;4.15;;;2.10;;
21181;SDS011;10749;46.296;7.524;2023-07-31T14:09:23;6.22;;;2.10;;
21181;SDS011;10749;46.296;7.524;2023-07-31T14:11:49;2.55;;;2.00;;
21181;SDS011;10749;46.296;7.524;2023-07-31T14:14:14;3.53;;;1.80;;
21181;SDS011;10749;46.296;7.524;2023-07-31T14:16:39;4.72;;;1.60;;
21181;SDS011;10749;46.296;7.524;2023-07-31T14:19:05;2.05;;;1.67;;
21181;SDS011;10749;46.296;7.524;2023-07-31T14:21:30;2.33;;;1.98;;
21181;SDS011;10749;46.296;7.524;2023-07-31T14:23:55;3.25;;;1.73;;
21181;SDS011;10749;46.296;7.524;2023-07-31T14:26:20;4.20;;;1.80;;
21181;SDS011;10749;46.296;7.524;2023-07-31T14:28:46;4.40;;;1.95;;
21181;SDS011;10749;46.296;7.524;2023-07-31T14:31:11;2.83;;;1.80;;
21181;SDS011;10749;46.296;7.524;2023-07-31T14:33:37;2.00;;;1.77;;
21181;SDS011;10749;46.296;7.524;2023-07-31T14:36:02;2.75;;;1.85;;
21181;SDS011;10749;46.296;7.524;2023-07-31T14:38:28;3.40;;;1.70;;
21181;SDS011;10749;46.296;7.524;2023-07-31T14:40:53;3.45;;;1.95;;
21181;SDS011;10749;46.296;7.524;2023-07-31T14:43:18;2.60;;;1.88;;
21181;SDS011;10749;46.296;7.524;2023-07-31T14:45:43;2.60;;;1.70;;
21181;SDS011;10749;46.296;7.524;2023-07-31T14:48:11;4.05;;;2.00;;
21181;SDS011;10749;46.296;7.524;2023-07-31T14:50:36;3.95;;;1.85;;
21181;SDS011;10749;46.296;7.524;2023-07-31T14:53:01;2.75;;;1.80;;
21181;SDS011;10749;46.296;7.524;2023-07-31T14:55:27;2.20;;;1.70;;
21181;SDS011;10749;46.296;7.524;2023-07-31T14:57:52;2.70;;;2.00;;
21181;SDS011;10749;46.296;7.524;2023-07-31T15:00:17;4.60;;;2.05;;
21181;SDS011;10749;46.296;7.524;2023-07-31T15:02:43;4.45;;;2.00;;